KNSE/NSE METAR and TAF weather

Enter ICAO airport designator
Station Type Date Time Source
KNSE METAR 2019/06/16 04:56 UTC NOAA

KNSE 160456Z AUTO 13003KT 10SM CLR 23/22 A3005 RMK AO2 SLP160 T02280222 $


Station Type Date Time Source
KNSE Decoded METAR 2019/06/16 04:56 UTC NOAA

MILTON WHITING FIELD (NORTH), FL, United States (KNSE) 30-44N 87-01W 60M
Jun 16, 2019 - 12:56 AM EDT / 2019.06.16 0456 UTC
Wind: from the SE (130 degrees) at 3 MPH (3 KT):0
Visibility: 10 mile(s):0
Sky conditions: clear
Temperature: 73.0 F (22.8 C)
Dew Point: 72.0 F (22.2 C)
Relative Humidity: 96%
Pressure (altimeter): 30.05 in. Hg (1017 hPa)
ob: KNSE 160456Z AUTO 13003KT 10SM CLR 23/22 A3005 RMK AO2 SLP160 T02280222
cycle: 5

Station Type Date Time Source
KNSE TAF 2019/06/15 23:15 UTC NOAA

TAF KNSE 1523/1623 17010KT 9999 FEW040 SCT250 QNH2999INS
FM160300 18008KT 9999 FEW015 SCT250 QNH2996INS
BECMG 1607/1609 VRB06KT 9999 FEW015 FEW250 QNH2995INS
BECMG 1613/1615 17008KT 9999 FEW015 SCT250 QNH2998INS AUTOMATED SENSOR METWATCH 1523 TIL 1711 T22/1611Z T32/1620Z FN00213

Example: see airport list